sensor_id;sensor_type;location;lat;lon;timestamp;temperature;humidity
6142;DHT22;71289;51.552;6.210;2023-12-20T00:01:40;8.50;99.90
6142;DHT22;71289;51.552;6.210;2023-12-20T00:04:06;8.50;99.90
6142;DHT22;71289;51.552;6.210;2023-12-20T00:06:31;8.50;99.90
6142;DHT22;71289;51.552;6.210;2023-12-20T00:08:57;8.50;99.90
6142;DHT22;71289;51.552;6.210;2023-12-20T00:11:25;8.50;99.90
6142;DHT22;71289;51.552;6.210;2023-12-20T00:13:51;8.50;99.90
6142;DHT22;71289;51.552;6.210;2023-12-20T00:16:17;8.40;99.90
6142;DHT22;71289;51.552;6.210;2023-12-20T00:18:42;8.40;99.90
6142;DHT22;71289;51.552;6.210;2023-12-20T00:21:08;8.50;99.90
6142;DHT22;71289;51.552;6.210;2023-12-20T00:23:33;8.50;99.90
6142;DHT22;71289;51.552;6.210;2023-12-20T00:25:59;8.50;99.90
6142;DHT22;71289;51.552;6.210;2023-12-20T00:28:24;8.40;99.90
6142;DHT22;71289;51.552;6.210;2023-12-20T00:30:50;8.40;99.90
6142;DHT22;71289;51.552;6.210;2023-12-20T00:33:15;8.40;99.90
6142;DHT22;71289;51.552;6.210;2023-12-20T00:35:41;8.30;99.90
6142;DHT22;71289;51.552;6.210;2023-12-20T00:38:06;8.40;99.90
6142;DHT22;71289;51.552;6.210;2023-12-20T00:40:34;8.30;99.90
6142;DHT22;71289;51.552;6.210;2023-12-20T00:42:59;8.30;99.90
6142;DHT22;71289;51.552;6.210;2023-12-20T00:45:25;8.30;99.90
6142;DHT22;71289;51.552;6.210;2023-12-20T00:47:50;8.20;99.90
6142;DHT22;71289;51.552;6.210;2023-12-20T00:50:16;8.10;99.90
6142;DHT22;71289;51.552;6.210;2023-12-20T00:52:41;8.20;99.90
6142;DHT22;71289;51.552;6.210;2023-12-20T00:55:07;8.10;99.90
6142;DHT22;71289;51.552;6.210;2023-12-20T00:57:33;8.00;99.90
6142;DHT22;71289;51.552;6.210;2023-12-20T00:59:58;8.00;99.90
6142;DHT22;71289;51.552;6.210;2023-12-20T01:02:24;8.00;99.90
6142;DHT22;71289;51.552;6.210;2023-12-20T01:04:49;8.00;99.90
6142;DHT22;71289;51.552;6.210;2023-12-20T01:07:15;7.90;99.90
6142;DHT22;71289;51.552;6.210;2023-12-20T01:09:40;7.90;99.90
6142;DHT22;71289;51.552;6.210;2023-12-20T01:12:06;7.80;99.90
6142;DHT22;71289;51.552;6.210;2023-12-20T01:14:31;7.70;99.90
6142;DHT22;71289;51.552;6.210;2023-12-20T01:16:57;7.60;99.90
6142;DHT22;71289;51.552;6.210;2023-12-20T01:19:22;7.60;99.90
6142;DHT22;71289;51.552;6.210;2023-12-20T01:21:49;7.50;99.90
6142;DHT22;71289;51.552;6.210;2023-12-20T01:24:14;7.60;99.90
6142;DHT22;71289;51.552;6.210;2023-12-20T01:26:40;7.60;99.90
6142;DHT22;71289;51.552;6.210;2023-12-20T01:29:05;7.60;99.90
6142;DHT22;71289;51.552;6.210;2023-12-20T01:31:31;7.50;99.90
6142;DHT22;71289;51.552;6.210;2023-12-20T01:33:56;7.50;99.90
6142;DHT22;71289;51.552;6.210;2023-12-20T01:36:22;7.50;99.90
6142;DHT22;71289;51.552;6.210;2023-12-20T01:38:47;7.40;99.90
6142;DHT22;71289;51.552;6.210;2023-12-20T01:41:13;7.40;99.90
6142;DHT22;71289;51.552;6.210;2023-12-20T01:43:38;7.20;99.90
6142;DHT22;71289;51.552;6.210;2023-12-20T01:46:04;7.20;99.90
6142;DHT22;71289;51.552;6.210;2023-12-20T01:48:30;7.20;99.90
6142;DHT22;71289;51.552;6.210;2023-12-20T01:50:59;7.20;99.90
6142;DHT22;71289;51.552;6.210;2023-12-20T01:53:25;7.10;99.90
6142;DHT22;71289;51.552;6.210;2023-12-20T01:55:54;7.00;99.90
6142;DHT22;71289;51.552;6.210;2023-12-20T01:58:21;7.00;99.90
6142;DHT22;71289;51.552;6.210;2023-12-20T02:00:47;6.90;99.90
6142;DHT22;71289;51.552;6.210;2023-12-20T02:03:13;6.80;99.90
6142;DHT22;71289;51.552;6.210;2023-12-20T02:05:39;6.70;99.90
6142;DHT22;71289;51.552;6.210;2023-12-20T02:08:05;6.60;99.90
6142;DHT22;71289;51.552;6.210;2023-12-20T02:10:31;6.60;99.90
6142;DHT22;71289;51.552;6.210;2023-12-20T02:12:57;6.60;99.90
6142;DHT22;71289;51.552;6.210;2023-12-20T02:15:23;6.60;99.90
6142;DHT22;71289;51.552;6.210;2023-12-20T02:17:49;6.60;99.90
6142;DHT22;71289;51.552;6.210;2023-12-20T02:20:14;6.70;99.90
6142;DHT22;71289;51.552;6.210;2023-12-20T02:22:40;6.60;99.90
6142;DHT22;71289;51.552;6.210;2023-12-20T02:25:06;6.60;99.90
6142;DHT22;71289;51.552;6.210;2023-12-20T02:27:31;6.60;99.90
6142;DHT22;71289;51.552;6.210;2023-12-20T02:29:57;6.60;99.90
6142;DHT22;71289;51.552;6.210;2023-12-20T02:32:24;6.60;99.90
6142;DHT22;71289;51.552;6.210;2023-12-20T02:34:53;6.60;99.90
6142;DHT22;71289;51.552;6.210;2023-12-20T02:37:19;6.60;99.90
6142;DHT22;71289;51.552;6.210;2023-12-20T02:39:44;6.60;99.90
6142;DHT22;71289;51.552;6.210;2023-12-20T02:42:10;6.60;99.90
6142;DHT22;71289;51.552;6.210;2023-12-20T02:44:35;6.60;99.90
6142;DHT22;71289;51.552;6.210;2023-12-20T02:47:02;6.60;99.90
6142;DHT22;71289;51.552;6.210;2023-12-20T02:49:27;6.60;99.90
6142;DHT22;71289;51.552;6.210;2023-12-20T02:51:53;6.60;99.90
6142;DHT22;71289;51.552;6.210;2023-12-20T02:54:18;6.50;99.90
6142;DHT22;71289;51.552;6.210;2023-12-20T02:56:44;6.50;99.90
6142;DHT22;71289;51.552;6.210;2023-12-20T02:59:09;6.40;99.90
6142;DHT22;71289;51.552;6.210;2023-12-20T03:01:35;6.40;99.90
6142;DHT22;71289;51.552;6.210;2023-12-20T03:04:01;6.30;99.90
6142;DHT22;71289;51.552;6.210;2023-12-20T03:06:26;6.30;99.90
6142;DHT22;71289;51.552;6.210;2023-12-20T03:08:52;6.40;99.90
6142;DHT22;71289;51.552;6.210;2023-12-20T03:11:18;6.30;99.90
6142;DHT22;71289;51.552;6.210;2023-12-20T03:13:43;6.30;99.90
6142;DHT22;71289;51.552;6.210;2023-12-20T03:16:10;6.30;99.90
6142;DHT22;71289;51.552;6.210;2023-12-20T03:18:36;6.30;99.90
6142;DHT22;71289;51.552;6.210;2023-12-20T03:21:02;6.20;99.90
6142;DHT22;71289;51.552;6.210;2023-12-20T03:23:29;6.20;99.90
6142;DHT22;71289;51.552;6.210;2023-12-20T03:25:56;6.20;99.90
6142;DHT22;71289;51.552;6.210;2023-12-20T03:28:21;6.10;99.90
6142;DHT22;71289;51.552;6.210;2023-12-20T03:30:48;6.10;99.90
6142;DHT22;71289;51.552;6.210;2023-12-20T03:33:14;6.10;99.90
6142;DHT22;71289;51.552;6.210;2023-12-20T03:35:39;6.20;99.90
6142;DHT22;71289;51.552;6.210;2023-12-20T03:38:05;6.20;99.90
6142;DHT22;71289;51.552;6.210;2023-12-20T03:40:30;6.20;99.90
6142;DHT22;71289;51.552;6.210;2023-12-20T03:42:56;6.10;99.90
6142;DHT22;71289;51.552;6.210;2023-12-20T03:45:21;6.10;99.90
6142;DHT22;71289;51.552;6.210;2023-12-20T03:47:47;6.10;99.90
6142;DHT22;71289;51.552;6.210;2023-12-20T03:50:13;6.10;99.90
6142;DHT22;71289;51.552;6.210;2023-12-20T03:52:38;6.30;99.90
6142;DHT22;71289;51.552;6.210;2023-12-20T03:55:04;6.00;99.90
6142;DHT22;71289;51.552;6.210;2023-12-20T03:57:30;6.00;99.90
6142;DHT22;71289;51.552;6.210;2023-12-20T03:59:55;5.90;99.90
6142;DHT22;71289;51.552;6.210;2023-12-20T04:02:21;5.90;99.90
6142;DHT22;71289;51.552;6.210;2023-12-20T04:04:46;5.80;99.90
6142;DHT22;71289;51.552;6.210;2023-12-20T04:07:12;5.80;99.90
6142;DHT22;71289;51.552;6.210;2023-12-20T04:09:37;5.80;99.90
6142;DHT22;71289;51.552;6.210;2023-12-20T04:12:03;5.80;99.90
6142;DHT22;71289;51.552;6.210;2023-12-20T04:14:30;5.80;99.90
6142;DHT22;71289;51.552;6.210;2023-12-20T04:16:55;5.80;99.90
6142;DHT22;71289;51.552;6.210;2023-12-20T04:19:21;5.80;99.90
6142;DHT22;71289;51.552;6.210;2023-12-20T04:21:47;5.90;99.90
6142;DHT22;71289;51.552;6.210;2023-12-20T04:24:12;5.80;99.90
6142;DHT22;71289;51.552;6.210;2023-12-20T04:26:38;5.80;99.90
6142;DHT22;71289;51.552;6.210;2023-12-20T04:29:03;5.80;99.90
6142;DHT22;71289;51.552;6.210;2023-12-20T04:31:29;5.80;99.90
6142;DHT22;71289;51.552;6.210;2023-12-20T04:33:54;5.70;99.90
6142;DHT22;71289;51.552;6.210;2023-12-20T04:36:20;5.70;99.90
6142;DHT22;71289;51.552;6.210;2023-12-20T04:38:45;5.70;99.90
6142;DHT22;71289;51.552;6.210;2023-12-20T04:41:11;5.80;99.90
6142;DHT22;71289;51.552;6.210;2023-12-20T04:43:36;5.80;99.90
6142;DHT22;71289;51.552;6.210;2023-12-20T04:46:02;5.90;99.90
6142;DHT22;71289;51.552;6.210;2023-12-20T04:48:28;5.90;99.90
6142;DHT22;71289;51.552;6.210;2023-12-20T04:50:53;5.90;99.90
6142;DHT22;71289;51.552;6.210;2023-12-20T04:53:19;5.90;99.90
6142;DHT22;71289;51.552;6.210;2023-12-20T04:55:45;6.00;99.90
6142;DHT22;71289;51.552;6.210;2023-12-20T04:58:10;6.00;99.90
6142;DHT22;71289;51.552;6.210;2023-12-20T05:00:36;6.00;99.90
6142;DHT22;71289;51.552;6.210;2023-12-20T05:03:01;6.00;99.90
6142;DHT22;71289;51.552;6.210;2023-12-20T05:05:27;6.10;99.90
6142;DHT22;71289;51.552;6.210;2023-12-20T05:07:52;6.10;99.90
6142;DHT22;71289;51.552;6.210;2023-12-20T05:10:18;6.10;99.90
6142;DHT22;71289;51.552;6.210;2023-12-20T05:12:43;6.10;99.90
6142;DHT22;71289;51.552;6.210;2023-12-20T05:15:09;6.10;99.90
6142;DHT22;71289;51.552;6.210;2023-12-20T05:17:34;6.20;99.90
6142;DHT22;71289;51.552;6.210;2023-12-20T05:20:00;6.20;99.90
6142;DHT22;71289;51.552;6.210;2023-12-20T05:22:26;6.20;99.90
6142;DHT22;71289;51.552;6.210;2023-12-20T05:24:52;6.20;99.90
6142;DHT22;71289;51.552;6.210;2023-12-20T05:27:18;6.20;99.90
6142;DHT22;71289;51.552;6.210;2023-12-20T05:29:43;6.30;99.90
6142;DHT22;71289;51.552;6.210;2023-12-20T05:32:10;6.30;99.90
6142;DHT22;71289;51.552;6.210;2023-12-20T05:34:35;6.30;99.90
6142;DHT22;71289;51.552;6.210;2023-12-20T05:37:01;6.30;99.90
6142;DHT22;71289;51.552;6.210;2023-12-20T05:39:27;6.30;99.90
6142;DHT22;71289;51.552;6.210;2023-12-20T05:41:52;6.30;99.90
6142;DHT22;71289;51.552;6.210;2023-12-20T05:44:18;6.30;99.90
6142;DHT22;71289;51.552;6.210;2023-12-20T05:46:44;6.30;99.90
6142;DHT22;71289;51.552;6.210;2023-12-20T05:49:09;6.30;99.90
6142;DHT22;71289;51.552;6.210;2023-12-20T05:51:36;6.40;99.90
6142;DHT22;71289;51.552;6.210;2023-12-20T05:54:01;6.40;99.90
6142;DHT22;71289;51.552;6.210;2023-12-20T05:56:27;6.40;99.90
6142;DHT22;71289;51.552;6.210;2023-12-20T05:58:52;6.40;99.90
6142;DHT22;71289;51.552;6.210;2023-12-20T06:01:18;6.40;99.90
6142;DHT22;71289;51.552;6.210;2023-12-20T06:03:44;6.40;99.90
6142;DHT22;71289;51.552;6.210;2023-12-20T06:06:11;6.40;99.90
6142;DHT22;71289;51.552;6.210;2023-12-20T06:08:38;6.50;99.90
6142;DHT22;71289;51.552;6.210;2023-12-20T06:11:03;6.50;99.90
6142;DHT22;71289;51.552;6.210;2023-12-20T06:13:29;6.50;99.90
6142;DHT22;71289;51.552;6.210;2023-12-20T06:15:55;6.50;99.90
6142;DHT22;71289;51.552;6.210;2023-12-20T06:18:21;6.50;99.90
6142;DHT22;71289;51.552;6.210;2023-12-20T06:20:46;6.60;99.90
6142;DHT22;71289;51.552;6.210;2023-12-20T06:23:12;6.60;99.90
6142;DHT22;71289;51.552;6.210;2023-12-20T06:25:37;6.60;99.90
6142;DHT22;71289;51.552;6.210;2023-12-20T06:28:03;6.60;99.90
6142;DHT22;71289;51.552;6.210;2023-12-20T06:30:29;6.60;99.90
6142;DHT22;71289;51.552;6.210;2023-12-20T06:32:54;6.60;99.90
6142;DHT22;71289;51.552;6.210;2023-12-20T06:35:22;6.60;99.90
6142;DHT22;71289;51.552;6.210;2023-12-20T06:37:48;6.70;99.90
6142;DHT22;71289;51.552;6.210;2023-12-20T06:40:13;6.70;99.90
6142;DHT22;71289;51.552;6.210;2023-12-20T06:42:39;6.70;99.90
6142;DHT22;71289;51.552;6.210;2023-12-20T06:45:05;6.70;99.90
6142;DHT22;71289;51.552;6.210;2023-12-20T06:47:30;6.70;99.90
6142;DHT22;71289;51.552;6.210;2023-12-20T06:49:56;6.60;99.90
6142;DHT22;71289;51.552;6.210;2023-12-20T06:52:21;6.60;99.90
6142;DHT22;71289;51.552;6.210;2023-12-20T06:54:47;6.60;99.90
6142;DHT22;71289;51.552;6.210;2023-12-20T06:57:13;6.70;99.90
6142;DHT22;71289;51.552;6.210;2023-12-20T06:59:40;6.70;99.90
6142;DHT22;71289;51.552;6.210;2023-12-20T07:02:05;6.70;99.90
6142;DHT22;71289;51.552;6.210;2023-12-20T07:04:31;6.70;99.90
6142;DHT22;71289;51.552;6.210;2023-12-20T07:06:56;6.70;99.90
6142;DHT22;71289;51.552;6.210;2023-12-20T07:09:28;6.70;99.90
6142;DHT22;71289;51.552;6.210;2023-12-20T07:11:53;6.70;99.90
6142;DHT22;71289;51.552;6.210;2023-12-20T07:14:19;6.70;99.90
6142;DHT22;71289;51.552;6.210;2023-12-20T07:16:44;6.70;99.90
6142;DHT22;71289;51.552;6.210;2023-12-20T07:19:10;6.70;99.90
6142;DHT22;71289;51.552;6.210;2023-12-20T07:21:36;6.70;99.90
6142;DHT22;71289;51.552;6.210;2023-12-20T07:24:01;6.70;99.90
6142;DHT22;71289;51.552;6.210;2023-12-20T07:26:27;6.70;99.90
6142;DHT22;71289;51.552;6.210;2023-12-20T07:28:52;6.70;99.90
6142;DHT22;71289;51.552;6.210;2023-12-20T07:31:18;6.70;99.90
6142;DHT22;71289;51.552;6.210;2023-12-20T07:33:43;6.70;99.90
6142;DHT22;71289;51.552;6.210;2023-12-20T07:36:09;6.80;99.90
6142;DHT22;71289;51.552;6.210;2023-12-20T07:38:35;6.70;99.90
6142;DHT22;71289;51.552;6.210;2023-12-20T07:41:01;6.70;99.90
6142;DHT22;71289;51.552;6.210;2023-12-20T07:43:27;6.70;99.90
6142;DHT22;71289;51.552;6.210;2023-12-20T07:45:52;6.70;99.90
6142;DHT22;71289;51.552;6.210;2023-12-20T07:48:18;6.70;99.90
6142;DHT22;71289;51.552;6.210;2023-12-20T07:50:43;6.70;99.90
6142;DHT22;71289;51.552;6.210;2023-12-20T07:53:09;6.70;99.90
6142;DHT22;71289;51.552;6.210;2023-12-20T07:55:34;6.70;99.90
6142;DHT22;71289;51.552;6.210;2023-12-20T07:58:00;6.70;99.90
6142;DHT22;71289;51.552;6.210;2023-12-20T08:00:26;6.70;99.90
6142;DHT22;71289;51.552;6.210;2023-12-20T08:02:52;6.60;99.90
6142;DHT22;71289;51.552;6.210;2023-12-20T08:05:18;6.70;99.90
6142;DHT22;71289;51.552;6.210;2023-12-20T08:07:44;6.70;99.90
6142;DHT22;71289;51.552;6.210;2023-12-20T08:10:09;6.70;99.90
6142;DHT22;71289;51.552;6.210;2023-12-20T08:12:35;6.70;99.90
6142;DHT22;71289;51.552;6.210;2023-12-20T08:15:01;6.70;99.90
6142;DHT22;71289;51.552;6.210;2023-12-20T08:17:27;6.70;99.90
6142;DHT22;71289;51.552;6.210;2023-12-20T08:19:52;6.70;99.90
6142;DHT22;71289;51.552;6.210;2023-12-20T08:22:18;6.70;99.90
6142;DHT22;71289;51.552;6.210;2023-12-20T08:24:43;6.70;99.90
6142;DHT22;71289;51.552;6.210;2023-12-20T08:27:09;6.70;99.90
6142;DHT22;71289;51.552;6.210;2023-12-20T08:29:35;6.70;99.90
6142;DHT22;71289;51.552;6.210;2023-12-20T08:32:00;6.70;99.90
6142;DHT22;71289;51.552;6.210;2023-12-20T08:34:26;6.70;99.90
6142;DHT22;71289;51.552;6.210;2023-12-20T08:36:52;6.70;99.90
6142;DHT22;71289;51.552;6.210;2023-12-20T08:39:17;6.70;99.90
6142;DHT22;71289;51.552;6.210;2023-12-20T08:41:43;6.70;99.90
6142;DHT22;71289;51.552;6.210;2023-12-20T08:44:09;6.70;99.90
6142;DHT22;71289;51.552;6.210;2023-12-20T08:46:35;6.70;99.90
6142;DHT22;71289;51.552;6.210;2023-12-20T08:49:01;6.70;99.90
6142;DHT22;71289;51.552;6.210;2023-12-20T08:51:27;6.70;99.90
6142;DHT22;71289;51.552;6.210;2023-12-20T08:53:53;6.70;99.90
6142;DHT22;71289;51.552;6.210;2023-12-20T08:56:18;6.70;99.90
6142;DHT22;71289;51.552;6.210;2023-12-20T08:58:47;6.70;99.90
6142;DHT22;71289;51.552;6.210;2023-12-20T09:01:14;6.70;99.90
6142;DHT22;71289;51.552;6.210;2023-12-20T09:03:40;6.70;99.90
6142;DHT22;71289;51.552;6.210;2023-12-20T09:06:05;6.70;99.90
6142;DHT22;71289;51.552;6.210;2023-12-20T09:08:31;6.70;99.90
6142;DHT22;71289;51.552;6.210;2023-12-20T09:10:57;6.80;99.90
6142;DHT22;71289;51.552;6.210;2023-12-20T09:13:22;6.70;99.90
6142;DHT22;71289;51.552;6.210;2023-12-20T09:15:56;6.70;99.90
6142;DHT22;71289;51.552;6.210;2023-12-20T09:18:22;6.80;99.90
6142;DHT22;71289;51.552;6.210;2023-12-20T09:20:47;6.90;99.90
6142;DHT22;71289;51.552;6.210;2023-12-20T09:23:13;6.90;99.90
6142;DHT22;71289;51.552;6.210;2023-12-20T09:25:38;6.90;99.90
6142;DHT22;71289;51.552;6.210;2023-12-20T09:28:04;6.80;99.90
6142;DHT22;71289;51.552;6.210;2023-12-20T09:30:30;6.90;99.90
6142;DHT22;71289;51.552;6.210;2023-12-20T09:32:57;6.90;99.90
6142;DHT22;71289;51.552;6.210;2023-12-20T09:35:22;6.80;99.90
6142;DHT22;71289;51.552;6.210;2023-12-20T09:37:48;6.90;99.90
6142;DHT22;71289;51.552;6.210;2023-12-20T09:40:14;6.90;99.90
6142;DHT22;71289;51.552;6.210;2023-12-20T09:42:57;6.90;99.90
6142;DHT22;71289;51.552;6.210;2023-12-20T09:45:23;6.90;99.90
6142;DHT22;71289;51.552;6.210;2023-12-20T09:47:51;7.00;99.90
6142;DHT22;71289;51.552;6.210;2023-12-20T09:50:19;7.00;99.90
6142;DHT22;71289;51.552;6.210;2023-12-20T09:52:48;7.00;99.90
6142;DHT22;71289;51.552;6.210;2023-12-20T09:55:15;7.00;99.90
6142;DHT22;71289;51.552;6.210;2023-12-20T09:57:42;7.00;99.90
6142;DHT22;71289;51.552;6.210;2023-12-20T10:00:08;7.00;99.90
6142;DHT22;71289;51.552;6.210;2023-12-20T10:02:34;7.00;99.90
6142;DHT22;71289;51.552;6.210;2023-12-20T10:05:06;7.00;99.90
6142;DHT22;71289;51.552;6.210;2023-12-20T10:07:35;7.10;99.90
6142;DHT22;71289;51.552;6.210;2023-12-20T10:10:01;7.00;99.90
6142;DHT22;71289;51.552;6.210;2023-12-20T10:12:27;7.00;99.90
6142;DHT22;71289;51.552;6.210;2023-12-20T10:14:53;7.10;99.90
6142;DHT22;71289;51.552;6.210;2023-12-20T10:17:18;7.10;99.90
6142;DHT22;71289;51.552;6.210;2023-12-20T10:19:44;7.10;99.90
6142;DHT22;71289;51.552;6.210;2023-12-20T10:22:10;7.20;99.90
6142;DHT22;71289;51.552;6.210;2023-12-20T10:24:36;7.20;99.90
6142;DHT22;71289;51.552;6.210;2023-12-20T10:27:06;7.20;99.90
6142;DHT22;71289;51.552;6.210;2023-12-20T10:29:38;7.20;99.90
6142;DHT22;71289;51.552;6.210;2023-12-20T10:32:23;7.20;99.90
6142;DHT22;71289;51.552;6.210;2023-12-20T10:34:50;7.20;99.90
6142;DHT22;71289;51.552;6.210;2023-12-20T10:37:16;7.20;99.90
6142;DHT22;71289;51.552;6.210;2023-12-20T10:39:42;7.20;99.90
6142;DHT22;71289;51.552;6.210;2023-12-20T10:42:12;7.20;99.90
6142;DHT22;71289;51.552;6.210;2023-12-20T10:44:38;7.20;99.90
6142;DHT22;71289;51.552;6.210;2023-12-20T10:47:05;7.30;99.90
6142;DHT22;71289;51.552;6.210;2023-12-20T10:49:31;7.30;99.90
6142;DHT22;71289;51.552;6.210;2023-12-20T10:51:59;7.40;99.90
6142;DHT22;71289;51.552;6.210;2023-12-20T10:54:27;7.40;99.90
6142;DHT22;71289;51.552;6.210;2023-12-20T10:56:53;7.40;99.90
6142;DHT22;71289;51.552;6.210;2023-12-20T10:59:20;7.40;99.90
6142;DHT22;71289;51.552;6.210;2023-12-20T11:01:47;7.50;99.90
6142;DHT22;71289;51.552;6.210;2023-12-20T11:04:18;7.40;99.90
6142;DHT22;71289;51.552;6.210;2023-12-20T11:06:51;7.40;99.90
6142;DHT22;71289;51.552;6.210;2023-12-20T11:09:25;7.50;99.90
6142;DHT22;71289;51.552;6.210;2023-12-20T11:14:46;7.50;99.90
6142;DHT22;71289;51.552;6.210;2023-12-20T11:17:13;7.50;99.90
6142;DHT22;71289;51.552;6.210;2023-12-20T11:22:25;7.60;99.90
6142;DHT22;71289;51.552;6.210;2023-12-20T11:24:52;7.60;99.90
6142;DHT22;71289;51.552;6.210;2023-12-20T11:27:19;7.50;99.90
6142;DHT22;71289;51.552;6.210;2023-12-20T11:29:52;7.50;99.90
6142;DHT22;71289;51.552;6.210;2023-12-20T11:34:56;7.50;99.90
6142;DHT22;71289;51.552;6.210;2023-12-20T11:37:31;7.50;99.90
6142;DHT22;71289;51.552;6.210;2023-12-20T11:40:02;7.60;99.90
6142;DHT22;71289;51.552;6.210;2023-12-20T11:42:43;7.60;99.90
6142;DHT22;71289;51.552;6.210;2023-12-20T11:45:13;7.60;99.90
6142;DHT22;71289;51.552;6.210;2023-12-20T11:47:43;7.60;99.90
6142;DHT22;71289;51.552;6.210;2023-12-20T11:50:10;7.60;99.90
6142;DHT22;71289;51.552;6.210;2023-12-20T11:52:36;7.60;99.90
6142;DHT22;71289;51.552;6.210;2023-12-20T11:55:02;7.60;99.90
6142;DHT22;71289;51.552;6.210;2023-12-20T11:57:29;7.60;99.90
6142;DHT22;71289;51.552;6.210;2023-12-20T11:59:54;7.60;99.90
6142;DHT22;71289;51.552;6.210;2023-12-20T12:02:20;7.70;99.90
6142;DHT22;71289;51.552;6.210;2023-12-20T12:04:48;7.70;99.90
6142;DHT22;71289;51.552;6.210;2023-12-20T12:07:14;7.70;99.90
6142;DHT22;71289;51.552;6.210;2023-12-20T12:09:39;7.70;99.90
6142;DHT22;71289;51.552;6.210;2023-12-20T12:12:06;7.70;99.90
6142;DHT22;71289;51.552;6.210;2023-12-20T12:14:32;7.70;99.90
6142;DHT22;71289;51.552;6.210;2023-12-20T12:16:57;7.70;99.90
6142;DHT22;71289;51.552;6.210;2023-12-20T12:19:24;7.70;99.90
6142;DHT22;71289;51.552;6.210;2023-12-20T12:21:50;8.00;99.90
6142;DHT22;71289;51.552;6.210;2023-12-20T12:24:20;7.70;99.90
6142;DHT22;71289;51.552;6.210;2023-12-20T12:26:53;7.70;99.90
6142;DHT22;71289;51.552;6.210;2023-12-20T12:29:22;7.80;99.90
6142;DHT22;71289;51.552;6.210;2023-12-20T12:31:50;7.70;99.90
6142;DHT22;71289;51.552;6.210;2023-12-20T12:34:15;7.70;99.90
6142;DHT22;71289;51.552;6.210;2023-12-20T12:36:41;7.70;99.90
6142;DHT22;71289;51.552;6.210;2023-12-20T12:39:07;7.70;99.90
6142;DHT22;71289;51.552;6.210;2023-12-20T12:41:33;7.70;99.90
6142;DHT22;71289;51.552;6.210;2023-12-20T12:43:58;7.70;99.90
6142;DHT22;71289;51.552;6.210;2023-12-20T12:46:24;7.60;99.90
6142;DHT22;71289;51.552;6.210;2023-12-20T12:48:49;7.70;99.90
6142;DHT22;71289;51.552;6.210;2023-12-20T12:51:15;7.60;99.90
6142;DHT22;71289;51.552;6.210;2023-12-20T12:53:41;7.60;99.90
6142;DHT22;71289;51.552;6.210;2023-12-20T12:56:07;7.60;99.90
6142;DHT22;71289;51.552;6.210;2023-12-20T12:58:33;7.60;99.90
6142;DHT22;71289;51.552;6.210;2023-12-20T13:00:59;7.60;99.90
6142;DHT22;71289;51.552;6.210;2023-12-20T13:03:25;7.60;99.90
6142;DHT22;71289;51.552;6.210;2023-12-20T13:05:50;7.60;99.90
6142;DHT22;71289;51.552;6.210;2023-12-20T13:08:16;7.60;99.90
6142;DHT22;71289;51.552;6.210;2023-12-20T13:10:41;7.70;99.90
6142;DHT22;71289;51.552;6.210;2023-12-20T13:13:07;7.60;99.90
6142;DHT22;71289;51.552;6.210;2023-12-20T13:15:32;7.70;99.90
6142;DHT22;71289;51.552;6.210;2023-12-20T13:17:58;7.60;99.90
6142;DHT22;71289;51.552;6.210;2023-12-20T13:20:25;7.70;99.90
6142;DHT22;71289;51.552;6.210;2023-12-20T13:22:50;7.60;99.90
6142;DHT22;71289;51.552;6.210;2023-12-20T13:25:16;7.60;99.90
6142;DHT22;71289;51.552;6.210;2023-12-20T13:27:41;7.60;99.90
6142;DHT22;71289;51.552;6.210;2023-12-20T13:30:07;7.60;99.90
6142;DHT22;71289;51.552;6.210;2023-12-20T13:32:33;7.50;99.90
6142;DHT22;71289;51.552;6.210;2023-12-20T13:34:58;7.50;99.90
6142;DHT22;71289;51.552;6.210;2023-12-20T13:37:24;7.60;99.90
6142;DHT22;71289;51.552;6.210;2023-12-20T13:39:49;7.60;99.90
6142;DHT22;71289;51.552;6.210;2023-12-20T13:42:15;7.60;99.90
6142;DHT22;71289;51.552;6.210;2023-12-20T13:44:40;7.60;99.90
6142;DHT22;71289;51.552;6.210;2023-12-20T13:47:06;7.60;99.90
6142;DHT22;71289;51.552;6.210;2023-12-20T13:49:32;7.60;99.90
6142;DHT22;71289;51.552;6.210;2023-12-20T13:51:57;7.60;99.90
6142;DHT22;71289;51.552;6.210;2023-12-20T13:54:24;7.60;99.90
6142;DHT22;71289;51.552;6.210;2023-12-20T13:56:49;7.60;99.90
6142;DHT22;71289;51.552;6.210;2023-12-20T13:59:15;7.60;99.90
6142;DHT22;71289;51.552;6.210;2023-12-20T14:01:41;7.60;99.90
6142;DHT22;71289;51.552;6.210;2023-12-20T14:04:07;7.70;99.90
6142;DHT22;71289;51.552;6.210;2023-12-20T14:06:33;7.70;99.90
6142;DHT22;71289;51.552;6.210;2023-12-20T14:08:58;7.70;99.90
6142;DHT22;71289;51.552;6.210;2023-12-20T14:11:27;7.70;99.90
6142;DHT22;71289;51.552;6.210;2023-12-20T14:13:53;7.70;99.90
6142;DHT22;71289;51.552;6.210;2023-12-20T14:16:23;7.80;99.90
6142;DHT22;71289;51.552;6.210;2023-12-20T14:18:49;7.80;99.90
6142;DHT22;71289;51.552;6.210;2023-12-20T14:21:14;7.80;99.90
6142;DHT22;71289;51.552;6.210;2023-12-20T14:23:40;7.80;99.90
6142;DHT22;71289;51.552;6.210;2023-12-20T14:26:05;7.80;99.90
6142;DHT22;71289;51.552;6.210;2023-12-20T14:28:31;7.90;99.90
6142;DHT22;71289;51.552;6.210;2023-12-20T14:30:56;7.90;99.90
6142;DHT22;71289;51.552;6.210;2023-12-20T14:33:22;7.90;99.90
6142;DHT22;71289;51.552;6.210;2023-12-20T14:35:47;7.90;99.90
6142;DHT22;71289;51.552;6.210;2023-12-20T14:38:13;8.00;99.90
6142;DHT22;71289;51.552;6.210;2023-12-20T14:40:40;8.00;99.90
6142;DHT22;71289;51.552;6.210;2023-12-20T14:43:06;8.00;99.90
6142;DHT22;71289;51.552;6.210;2023-12-20T14:45:32;8.00;99.90
6142;DHT22;71289;51.552;6.210;2023-12-20T14:47:57;8.00;99.90
6142;DHT22;71289;51.552;6.210;2023-12-20T14:50:24;8.00;99.90
6142;DHT22;71289;51.552;6.210;2023-12-20T14:52:49;8.00;99.90
6142;DHT22;71289;51.552;6.210;2023-12-20T14:55:15;8.00;99.90
6142;DHT22;71289;51.552;6.210;2023-12-20T14:57:42;8.00;99.90
6142;DHT22;71289;51.552;6.210;2023-12-20T15:00:08;8.10;99.90
6142;DHT22;71289;51.552;6.210;2023-12-20T15:02:33;8.00;99.90
6142;DHT22;71289;51.552;6.210;2023-12-20T15:04:59;8.00;99.90
6142;DHT22;71289;51.552;6.210;2023-12-20T15:07:24;8.00;99.90
6142;DHT22;71289;51.552;6.210;2023-12-20T15:09:50;8.00;99.90
6142;DHT22;71289;51.552;6.210;2023-12-20T15:12:15;8.00;99.90
6142;DHT22;71289;51.552;6.210;2023-12-20T15:14:41;8.00;99.90
6142;DHT22;71289;51.552;6.210;2023-12-20T15:17:06;8.00;99.90
6142;DHT22;71289;51.552;6.210;2023-12-20T15:19:32;8.00;99.90
6142;DHT22;71289;51.552;6.210;2023-12-20T15:21:58;8.00;99.90
6142;DHT22;71289;51.552;6.210;2023-12-20T15:24:25;8.00;99.90
6142;DHT22;71289;51.552;6.210;2023-12-20T15:27:02;8.00;99.90
6142;DHT22;71289;51.552;6.210;2023-12-20T15:29:28;7.90;99.90
6142;DHT22;71289;51.552;6.210;2023-12-20T15:31:54;8.00;99.90
6142;DHT22;71289;51.552;6.210;2023-12-20T15:34:19;8.00;99.90
6142;DHT22;71289;51.552;6.210;2023-12-20T15:36:46;8.00;99.90
6142;DHT22;71289;51.552;6.210;2023-12-20T15:39:11;8.00;99.90
6142;DHT22;71289;51.552;6.210;2023-12-20T15:41:39;8.00;99.90
6142;DHT22;71289;51.552;6.210;2023-12-20T15:44:05;8.00;99.90
6142;DHT22;71289;51.552;6.210;2023-12-20T15:46:31;8.00;99.90
6142;DHT22;71289;51.552;6.210;2023-12-20T15:48:56;8.00;99.90
6142;DHT22;71289;51.552;6.210;2023-12-20T15:51:22;8.00;99.90
6142;DHT22;71289;51.552;6.210;2023-12-20T15:53:48;8.00;99.90
6142;DHT22;71289;51.552;6.210;2023-12-20T15:56:15;7.90;99.90
6142;DHT22;71289;51.552;6.210;2023-12-20T15:58:41;7.90;99.90
6142;DHT22;71289;51.552;6.210;2023-12-20T16:01:07;8.00;99.90
6142;DHT22;71289;51.552;6.210;2023-12-20T16:03:33;7.90;99.90